Terminal Aerodrome Forecast
Issued by NWS Louisville, KY

Home | Current Version | Previous Version | Text Only | Print | Product List | Glossary On
Versions: 1 2 3 4 5 6 7 8 9 10 11 12 13 14
000
FTUS43 KLMK 031731
TAFLEX
TAF
KLEX 031731Z 0318/0418 36005KT P6SM OVC035
     FM032300 06004KT P6SM SCT040 OVC090
     FM041400 10007KT 5SM BR VCSH OVC030=

USA.gov is the U.S. government's official web portal to all federal, state and local government web resources and services.